Time;durP1;ratioP1;P1;durP2;ratioP2;P2;SDS_P1;SDS_P2;PMS_P1;PMS_P2;Temp;Humidity;BMP_temperature;BMP_pressure;BME280_temperature;BME280_humidity;BME280_pressure;Samples;Min_cycle;Max_cycle;Signal;HPM_P1;HPM_P2
2021/12/13 00:01:25;;;;;;;202.68;46.08;;;10.20;99.90;;;;;;5092784;28;20044;-79
2021/12/13 00:04:11;;;;;;;208.85;45.60;;;10.20;99.90;;;;;;5086666;28;20040;-79
2021/12/13 00:06:46;;;;;;;199.35;45.30;;;10.20;99.90;;;;;;5094939;28;20059;-78
2021/12/13 00:09:15;;;;;;;198.95;46.00;;;10.20;99.90;;;;;;5091964;28;20466;-79
2021/12/13 00:11:45;;;;;;;193.52;45.00;;;10.20;99.90;;;;;;5092905;28;20457;-79
2021/12/13 00:14:19;;;;;;;178.60;43.35;;;10.20;99.90;;;;;;5092141;28;20082;-79
2021/12/13 00:16:59;;;;;;;170.80;43.20;;;10.20;99.90;;;;;;5093307;28;20044;-79
2021/12/13 00:19:40;;;;;;;164.27;42.20;;;10.20;99.90;;;;;;5094215;28;20055;-79
2021/12/13 00:22:14;;;;;;;171.50;43.13;;;10.30;99.90;;;;;;5092305;28;20048;-79
2021/12/13 00:24:42;;;;;;;184.77;43.17;;;10.30;99.90;;;;;;5092333;28;20043;-78
2021/12/13 00:27:15;;;;;;;188.95;42.42;;;10.20;99.90;;;;;;5108704;28;20122;-79
2021/12/13 00:30:00;;;;;;;195.40;42.65;;;10.20;99.90;;;;;;5102384;28;20040;-79
2021/12/13 00:32:39;;;;;;;157.75;40.38;;;10.20;99.90;;;;;;5092268;28;20052;-79
2021/12/13 00:35:11;;;;;;;167.45;39.72;;;10.20;99.90;;;;;;5090535;28;20488;-78
2021/12/13 00:37:47;;;;;;;152.77;39.03;;;10.30;99.90;;;;;;5092497;28;20048;-79
2021/12/13 00:40:22;;;;;;;156.55;38.70;;;10.20;99.90;;;;;;5092382;28;20455;-79
2021/12/13 00:42:57;;;;;;;146.13;38.35;;;10.20;99.90;;;;;;5105676;28;20047;-80
2021/12/13 00:45:29;;;;;;;143.93;37.28;;;10.20;99.90;;;;;;5107119;28;20044;-80
2021/12/13 00:47:56;;;;;;;128.13;34.80;;;10.20;99.90;;;;;;5105797;28;20048;-79
2021/12/13 00:50:40;;;;;;;137.73;37.00;;;10.30;99.90;;;;;;5099833;28;20121;-79
2021/12/13 00:53:07;;;;;;;118.45;34.15;;;10.20;99.90;;;;;;5092072;28;20145;-79
2021/12/13 00:55:35;;;;;;;132.73;36.38;;;10.30;99.90;;;;;;5092673;28;20051;-79
2021/12/13 00:58:06;;;;;;;131.07;35.63;;;10.30;99.90;;;;;;5092412;28;20059;-79
2021/12/13 01:00:50;;;;;;;128.40;35.42;;;10.30;99.90;;;;;;5097082;28;20115;-79
2021/12/13 01:03:41;;;;;;;118.05;34.67;;;10.30;99.90;;;;;;5091658;28;20056;-79
2021/12/13 01:06:48;;;;;;;129.25;34.60;;;10.20;99.90;;;;;;5083034;28;20396;-79
2021/12/13 01:10:01;;;;;;;121.70;34.60;;;10.30;99.90;;;;;;5089302;28;20103;-79
2021/12/13 01:12:28;;;;;;;123.85;34.45;;;10.30;99.90;;;;;;5079536;28;20072;-79
2021/12/13 01:15:19;;;;;;;136.32;34.83;;;10.20;99.90;;;;;;5092252;28;20044;-79
2021/12/13 01:20:30;;;;;;;125.85;33.80;;;10.20;99.90;;;;;;5102462;28;20052;-79
2021/12/13 01:23:04;;;;;;;128.23;34.15;;;10.20;99.90;;;;;;5092576;28;20079;-78
2021/12/13 01:26:00;;;;;;;118.68;33.88;;;10.30;99.90;;;;;;5091989;28;20044;-79
2021/12/13 01:28:40;;;;;;;119.43;33.85;;;10.20;99.90;;;;;;5093027;28;20062;-78
2021/12/13 01:31:19;;;;;;;116.25;32.00;;;10.30;99.90;;;;;;5107678;28;20036;-73
2021/12/13 01:33:47;;;;;;;128.82;35.17;;;10.20;99.90;;;;;;5092092;28;20052;-78
2021/12/13 01:36:24;;;;;;;119.95;33.60;;;10.20;99.90;;;;;;5095329;28;20096;-78
2021/12/13 01:38:58;;;;;;;119.63;33.70;;;10.20;99.90;;;;;;5095893;28;20400;-79
2021/12/13 01:41:32;;;;;;;116.85;33.33;;;10.30;99.90;;;;;;5104235;28;20150;-79
2021/12/13 01:44:07;;;;;;;112.35;33.38;;;10.30;99.90;;;;;;5075006;28;20048;-78
2021/12/13 01:46:39;;;;;;;105.28;32.85;;;10.20;99.90;;;;;;5074412;28;20040;-79
2021/12/13 01:49:06;;;;;;;126.30;34.28;;;10.30;99.90;;;;;;5088454;28;20401;-79
2021/12/13 01:51:33;;;;;;;108.82;32.80;;;10.30;99.90;;;;;;5116020;28;20051;-79
2021/12/13 01:54:14;;;;;;;121.22;33.20;;;10.20;99.90;;;;;;5115815;28;20047;-78
2021/12/13 02:00:08;;;;;;;130.18;34.03;;;10.20;99.90;;;;;;5087090;28;20096;-79
2021/12/13 02:02:36;;;;;;;119.35;33.67;;;10.20;99.90;;;;;;5095156;28;20048;-79
2021/12/13 02:05:18;;;;;;;118.22;33.80;;;10.20;99.90;;;;;;5106291;28;20040;-79
2021/12/13 02:07:46;;;;;;;128.35;33.25;;;10.20;99.90;;;;;;5108036;28;20067;-79
2021/12/13 02:10:35;;;;;;;122.72;32.95;;;10.30;99.90;;;;;;5105753;28;20109;-73
2021/12/13 02:13:09;;;;;;;104.57;31.75;;;10.20;99.90;;;;;;5109378;28;20055;-79
2021/12/13 02:18:27;;;;;;;106.47;31.02;;;10.20;99.90;;;;;;5094636;28;20048;-79
2021/12/13 02:21:03;;;;;;;99.60;29.83;;;10.30;99.90;;;;;;5097148;28;20040;-79
2021/12/13 02:23:32;;;;;;;90.80;28.85;;;10.30;99.90;;;;;;5094357;28;20404;-79
2021/12/13 02:25:58;;;;;;;100.45;29.92;;;10.30;99.90;;;;;;5095241;28;20048;-79
2021/12/13 02:28:27;;;;;;;100.32;28.85;;;10.30;99.90;;;;;;5093470;28;20392;-79
2021/12/13 02:31:07;;;;;;;78.40;28.15;;;10.30;99.90;;;;;;5097848;28;20097;-79
2021/12/13 02:33:39;;;;;;;88.67;27.90;;;10.20;99.90;;;;;;5110556;28;20052;-78
2021/12/13 02:36:12;;;;;;;82.63;27.40;;;10.30;99.90;;;;;;5111710;28;20052;-78
2021/12/13 02:38:40;;;;;;;93.72;29.17;;;10.30;99.90;;;;;;5101474;28;20100;-77
2021/12/13 02:41:08;;;;;;;78.35;26.85;;;10.30;99.90;;;;;;5098382;28;20085;-79
2021/12/13 02:43:39;;;;;;;81.30;26.85;;;10.30;99.90;;;;;;5094182;28;20044;-79
2021/12/13 02:46:05;;;;;;;77.68;25.95;;;10.30;99.90;;;;;;5094932;28;20052;-79
2021/12/13 02:48:36;;;;;;;77.03;26.55;;;10.30;99.90;;;;;;5093865;28;20162;-78
2021/12/13 02:51:20;;;;;;;78.35;26.30;;;10.30;99.90;;;;;;5094521;28;20040;-78
2021/12/13 02:54:05;;;;;;;73.60;26.45;;;10.30;99.90;;;;;;5074618;28;20048;-79
2021/12/13 02:56:49;;;;;;;75.20;27.13;;;10.30;99.90;;;;;;5073310;28;20063;-79
2021/12/13 02:59:16;;;;;;;71.18;26.52;;;10.20;99.90;;;;;;5078646;28;20052;-76
2021/12/13 03:01:52;;;;;;;70.30;26.10;;;10.30;99.90;;;;;;5102308;28;20063;-78
2021/12/13 03:04:22;;;;;;;61.15;25.58;;;10.20;99.90;;;;;;5093959;28;20054;-73
2021/12/13 03:06:50;;;;;;;59.47;25.90;;;10.30;99.90;;;;;;5094256;28;20055;-77
2021/12/13 03:09:21;;;;;;;54.08;23.70;;;10.30;99.90;;;;;;5094349;28;20043;-76
2021/12/13 03:11:50;;;;;;;49.67;23.05;;;10.30;99.90;;;;;;5094269;28;20051;-78
2021/12/13 03:14:24;;;;;;;48.55;23.40;;;10.30;99.90;;;;;;5093993;28;20039;-78
2021/12/13 03:17:01;;;;;;;48.00;22.40;;;10.30;99.90;;;;;;5093968;28;20044;-78
2021/12/13 03:19:30;;;;;;;47.30;22.08;;;10.30;99.90;;;;;;5093649;28;20044;-79
2021/12/13 03:22:14;;;;;;;43.53;20.98;;;10.30;99.90;;;;;;5111424;28;20047;-78
2021/12/13 03:25:01;;;;;;;34.03;18.63;;;10.20;99.90;;;;;;5096119;28;20043;-78
2021/12/13 03:27:52;;;;;;;37.90;20.27;;;10.30;99.90;;;;;;5113761;28;20126;-77
2021/12/13 03:30:33;;;;;;;34.22;18.63;;;10.30;99.90;;;;;;5103072;28;20123;-78
2021/12/13 03:33:08;;;;;;;32.60;17.80;;;10.20;99.90;;;;;;5080104;28;20047;-77
2021/12/13 03:35:50;;;;;;;32.67;16.95;;;10.30;99.90;;;;;;5104115;28;20408;-78
2021/12/13 03:38:21;;;;;;;24.48;14.60;;;10.20;99.90;;;;;;5102509;28;20044;-78
2021/12/13 03:40:49;;;;;;;28.10;14.00;;;10.20;99.90;;;;;;5093732;28;20079;-78
2021/12/13 03:43:26;;;;;;;22.48;13.13;;;10.20;99.90;;;;;;5093596;28;20095;-78
2021/12/13 03:45:56;;;;;;;18.40;11.15;;;10.20;99.90;;;;;;5106366;28;20048;-78
2021/12/13 03:48:25;;;;;;;18.02;11.48;;;10.20;99.90;;;;;;5102972;27;20382;-73
2021/12/13 03:50:56;;;;;;;18.00;9.80;;;10.20;99.90;;;;;;5106323;28;20393;-77
2021/12/13 03:53:27;;;;;;;18.02;10.20;;;10.10;99.90;;;;;;5113839;28;20048;-72
2021/12/13 03:56:01;;;;;;;20.85;10.27;;;10.10;99.90;;;;;;5101158;27;20048;-78
2021/12/13 03:58:32;;;;;;;16.80;10.07;;;10.10;99.90;;;;;;5092371;28;20051;-77
2021/12/13 04:01:11;;;;;;;16.90;10.15;;;10.00;99.90;;;;;;5106357;28;20377;-78
2021/12/13 04:03:39;;;;;;;16.35;9.73;;;10.00;99.90;;;;;;5105543;28;20115;-77
2021/12/13 04:06:05;;;;;;;16.30;10.70;;;10.00;99.90;;;;;;5093169;28;20054;-78
2021/12/13 04:08:31;;;;;;;15.35;10.20;;;9.90;99.90;;;;;;5091367;28;20123;-77
2021/12/13 04:11:04;;;;;;;18.02;10.70;;;9.90;99.90;;;;;;5094631;28;20040;-78
2021/12/13 04:13:42;;;;;;;18.58;10.73;;;9.90;99.90;;;;;;5092631;28;20465;-77
2021/12/13 04:16:46;;;;;;;19.70;12.52;;;9.80;99.90;;;;;;5107971;28;20052;-78
2021/12/13 04:19:17;;;;;;;18.95;11.93;;;9.80;99.90;;;;;;5099440;28;20090;-78
2021/12/13 04:21:45;;;;;;;;;;;9.80;99.90;;;;;;5095379;28;20052;-77
2021/12/13 04:24:18;;;;;;;19.17;12.65;;;9.70;99.90;;;;;;5092487;28;19920;-77
2021/12/13 04:26:51;;;;;;;21.27;13.63;;;9.80;99.90;;;;;;5092846;28;20048;-77
2021/12/13 04:29:26;;;;;;;26.17;14.65;;;9.80;99.90;;;;;;5091793;28;20051;-78
2021/12/13 04:31:53;;;;;;;24.10;14.32;;;9.70;99.90;;;;;;5092362;28;20052;-78
2021/12/13 04:34:24;;;;;;;26.85;15.20;;;9.70;99.90;;;;;;5092800;28;20498;-78
2021/12/13 04:36:52;;;;;;;26.05;16.17;;;9.70;99.90;;;;;;5091790;28;20058;-78
2021/12/13 04:39:29;;;;;;;28.20;16.83;;;9.70;99.90;;;;;;5092639;28;20040;-76
2021/12/13 04:41:59;;;;;;;27.83;15.48;;;9.70;99.90;;;;;;5110557;28;20055;-78
2021/12/13 04:44:45;;;;;;;26.00;16.27;;;9.60;99.90;;;;;;5095559;28;20058;-78
2021/12/13 04:47:22;;;;;;;25.92;15.88;;;9.60;99.90;;;;;;5093183;28;20044;-79
2021/12/13 04:49:57;;;;;;;29.58;16.15;;;9.50;99.90;;;;;;5095860;28;20074;-79
2021/12/13 04:52:23;;;;;;;26.73;15.80;;;9.50;99.90;;;;;;5103466;28;20137;-79
2021/12/13 04:54:52;;;;;;;26.90;17.13;;;9.50;99.90;;;;;;5095231;28;20731;-78
2021/12/13 04:57:18;;;;;;;25.45;15.95;;;9.50;99.90;;;;;;5098119;28;20040;-78
2021/12/13 04:59:50;;;;;;;30.05;16.90;;;9.40;99.90;;;;;;5092099;28;20047;-78
2021/12/13 05:02:16;;;;;;;30.73;16.80;;;9.40;99.90;;;;;;5092297;28;20047;-78
2021/12/13 05:04:42;;;;;;;30.95;16.75;;;9.40;99.90;;;;;;5093398;28;20040;-78
2021/12/13 05:07:08;;;;;;;31.27;17.52;;;9.30;99.90;;;;;;5104753;28;20081;-79
2021/12/13 05:09:34;;;;;;;32.58;18.20;;;9.30;99.90;;;;;;5092895;28;20039;-79
2021/12/13 05:12:13;;;;;;;34.08;18.23;;;9.30;99.90;;;;;;5106409;28;20160;-79
2021/12/13 05:14:50;;;;;;;34.38;18.73;;;9.20;99.90;;;;;;5112217;28;20392;-78
2021/12/13 05:17:43;;;;;;;36.60;19.35;;;9.20;99.90;;;;;;5112797;28;20040;-79
2021/12/13 05:20:18;;;;;;;36.88;19.33;;;9.20;99.90;;;;;;5094607;28;20086;-79
2021/12/13 05:22:50;;;;;;;36.05;19.23;;;9.20;99.90;;;;;;5095254;28;20485;-79
2021/12/13 05:25:34;;;;;;;34.72;18.95;;;9.20;99.90;;;;;;5096238;28;20050;-78
2021/12/13 05:28:05;;;;;;;36.67;20.45;;;9.20;99.90;;;;;;5096262;28;20044;-79
2021/12/13 05:30:33;;;;;;;38.17;20.25;;;9.20;99.90;;;;;;5096128;28;20075;-79
2021/12/13 05:33:05;;;;;;;36.95;19.75;;;9.20;99.90;;;;;;5094636;28;20052;-78
2021/12/13 05:35:35;;;;;;;40.10;20.83;;;9.30;99.90;;;;;;5096041;28;20060;-78
2021/12/13 05:38:21;;;;;;;39.05;21.23;;;9.20;99.90;;;;;;5096421;28;20055;-78
2021/12/13 05:40:47;;;;;;;39.60;20.77;;;9.30;99.90;;;;;;5094592;28;20503;-78
2021/12/13 05:43:21;;;;;;;40.55;21.70;;;9.20;99.90;;;;;;5095854;28;20040;-78
2021/12/13 05:46:09;;;;;;;44.10;22.73;;;9.20;99.90;;;;;;5094545;28;20044;-79
2021/12/13 05:48:35;;;;;;;41.17;21.33;;;9.20;99.90;;;;;;5095429;28;20044;-72
2021/12/13 05:51:05;;;;;;;41.00;22.85;;;9.20;99.90;;;;;;5095570;28;20043;-78
2021/12/13 05:53:36;;;;;;;41.90;22.60;;;9.30;99.90;;;;;;5095842;28;20048;-78
2021/12/13 05:56:12;;;;;;;43.28;22.77;;;9.20;99.90;;;;;;5095522;28;20047;-78
2021/12/13 05:58:58;;;;;;;41.90;23.25;;;9.20;99.90;;;;;;5095087;28;20119;-73
2021/12/13 06:01:29;;;;;;;41.75;23.02;;;9.30;99.90;;;;;;5095810;28;20040;-78
2021/12/13 06:04:06;;;;;;;39.78;22.70;;;9.30;99.90;;;;;;5095211;28;20058;-78
2021/12/13 06:06:40;;;;;;;48.45;24.55;;;9.20;99.90;;;;;;5095317;28;20389;-78
2021/12/13 06:09:06;;;;;;;50.78;25.33;;;9.20;99.90;;;;;;5095386;28;20133;-78
2021/12/13 06:11:34;;;;;;;49.85;25.90;;;9.30;99.90;;;;;;5095469;28;20061;-78
2021/12/13 06:14:17;;;;;;;47.55;25.02;;;9.30;99.90;;;;;;5094606;28;20043;-78
2021/12/13 06:16:54;;;;;;;52.25;25.10;;;9.20;99.90;;;;;;5094483;28;20044;-78
2021/12/13 06:19:26;;;;;;;52.08;25.98;;;9.20;99.90;;;;;;5094445;28;20051;-79
2021/12/13 06:22:04;;;;;;;52.55;25.90;;;9.20;99.90;;;;;;5094712;28;20052;-79
2021/12/13 06:24:41;;;;;;;54.63;27.58;;;9.20;99.90;;;;;;5095015;28;20122;-79
2021/12/13 06:27:20;;;;;;;50.17;27.23;;;9.20;99.90;;;;;;5094858;28;20119;-79
2021/12/13 06:30:05;;;;;;;57.22;28.55;;;9.20;99.90;;;;;;5093711;28;20036;-79
2021/12/13 06:32:40;;;;;;;55.88;28.67;;;9.20;99.90;;;;;;5094810;28;20059;-79
2021/12/13 06:35:34;;;;;;;55.75;28.33;;;9.20;99.90;;;;;;5092782;28;20048;-79
2021/12/13 06:38:24;;;;;;;55.35;29.35;;;9.20;99.90;;;;;;5094159;28;20047;-79
2021/12/13 06:41:09;;;;;;;58.63;30.52;;;9.20;99.90;;;;;;5094128;28;20036;-79
2021/12/13 06:43:43;;;;;;;55.47;30.00;;;9.20;99.90;;;;;;5095119;28;20051;-79
2021/12/13 06:46:32;;;;;;;53.22;29.25;;;9.20;99.90;;;;;;5095246;28;20070;-80
2021/12/13 06:49:10;;;;;;;59.40;31.40;;;9.20;99.90;;;;;;5093967;28;20044;-79
2021/12/13 06:52:00;;;;;;;63.35;32.17;;;9.20;99.90;;;;;;5094335;28;20377;-79
2021/12/13 06:54:30;;;;;;;59.13;31.25;;;9.20;99.90;;;;;;5094728;28;20509;-80
2021/12/13 06:57:10;;;;;;;;;;;9.20;99.90;;;;;;5094626;28;20044;-79
2021/12/13 06:59:46;;;;;;;58.47;31.88;;;9.20;99.90;;;;;;5094209;28;19967;-79
2021/12/13 07:02:17;;;;;;;59.15;31.90;;;9.20;99.90;;;;;;5094210;28;20119;-79
2021/12/13 07:04:57;;;;;;;59.45;32.40;;;9.20;99.90;;;;;;5094293;28;20068;-74
2021/12/13 07:07:28;;;;;;;62.60;33.45;;;9.20;99.90;;;;;;5094314;28;20040;-79
2021/12/13 07:10:00;;;;;;;59.25;32.13;;;9.20;99.90;;;;;;5093618;28;20104;-79
2021/12/13 07:12:28;;;;;;;59.15;32.42;;;9.20;99.90;;;;;;5093000;28;20051;-79
2021/12/13 07:14:55;;;;;;;60.63;32.22;;;9.20;99.90;;;;;;5093490;28;20048;-79
2021/12/13 07:17:31;;;;;;;59.42;32.70;;;9.20;99.90;;;;;;5093983;28;20562;-79
2021/12/13 07:19:59;;;;;;;59.55;33.60;;;9.20;99.90;;;;;;5093644;28;20055;-79
2021/12/13 07:22:28;;;;;;;56.25;32.42;;;9.20;99.90;;;;;;5093422;28;20051;-78
2021/12/13 07:25:10;;;;;;;55.50;32.03;;;9.20;99.90;;;;;;5093342;28;20051;-79
2021/12/13 07:27:48;;;;;;;62.00;33.53;;;9.20;99.90;;;;;;5094170;28;20043;-79
2021/12/13 07:30:29;;;;;;;57.47;32.85;;;9.20;99.90;;;;;;5093647;28;20370;-79
2021/12/13 07:33:03;;;;;;;59.17;32.30;;;9.20;99.90;;;;;;5093234;28;20059;-78
2021/12/13 07:35:40;;;;;;;59.00;32.67;;;9.20;99.90;;;;;;5093517;28;20080;-80
2021/12/13 07:38:06;;;;;;;57.15;32.33;;;9.20;99.90;;;;;;5093107;28;20044;-79
2021/12/13 07:40:40;;;;;;;55.00;32.05;;;9.20;99.90;;;;;;5093032;28;20044;-79
2021/12/13 07:43:14;;;;;;;57.40;32.55;;;9.20;99.90;;;;;;5093204;28;20052;-80
2021/12/13 07:45:45;;;;;;;56.28;33.85;;;9.20;99.90;;;;;;5093048;28;20052;-79
2021/12/13 07:48:22;;;;;;;55.58;32.08;;;9.20;99.90;;;;;;5093207;28;20051;-79
2021/12/13 07:51:09;;;;;;;59.13;32.78;;;9.20;99.90;;;;;;5093178;28;20046;-79
2021/12/13 07:53:43;;;;;;;57.33;31.92;;;9.20;99.90;;;;;;5093804;28;20044;-79
2021/12/13 07:56:11;;;;;;;58.75;32.35;;;9.20;99.90;;;;;;5091547;28;20909;-79
2021/12/13 07:58:47;;;;;;;55.22;31.65;;;9.20;99.90;;;;;;5093184;28;20118;-79
2021/12/13 08:01:22;;;;;;;59.13;32.22;;;9.20;99.90;;;;;;5092857;28;20047;-79
2021/12/13 08:04:00;;;;;;;54.40;31.70;;;9.20;99.90;;;;;;5073260;28;20087;-79
2021/12/13 08:06:34;;;;;;;54.38;31.80;;;9.20;99.90;;;;;;5092659;28;20144;-77
2021/12/13 08:09:05;;;;;;;52.15;32.30;;;9.20;99.90;;;;;;5091940;28;20102;-77
2021/12/13 08:11:42;;;;;;;54.05;31.45;;;9.20;99.90;;;;;;5093273;28;20048;-78
2021/12/13 08:14:09;;;;;;;54.00;32.10;;;9.20;99.90;;;;;;5092745;28;20067;-77
2021/12/13 08:16:45;;;;;;;55.75;31.58;;;9.20;99.90;;;;;;5092773;28;20127;-78
2021/12/13 08:19:18;;;;;;;52.42;30.00;;;9.20;99.90;;;;;;5090774;28;20044;-78
2021/12/13 08:21:54;;;;;;;51.92;30.45;;;9.20;99.90;;;;;;5093081;28;20048;-78
2021/12/13 08:24:25;;;;;;;50.03;29.92;;;9.20;99.90;;;;;;5093370;28;20043;-78
2021/12/13 08:26:59;;;;;;;53.08;29.70;;;9.20;99.90;;;;;;5091469;28;20052;-77
2021/12/13 08:29:31;;;;;;;49.00;30.25;;;9.20;99.90;;;;;;5077735;28;20127;-78
2021/12/13 08:32:05;;;;;;;46.80;29.58;;;9.20;99.90;;;;;;5091921;28;20059;-78
2021/12/13 08:34:38;;;;;;;48.42;29.50;;;9.20;99.90;;;;;;5092850;28;20473;-78
2021/12/13 08:37:24;;;;;;;47.45;29.23;;;9.20;99.90;;;;;;5093199;28;20051;-78
2021/12/13 08:40:11;;;;;;;47.17;29.65;;;9.20;99.90;;;;;;5113226;28;20044;-80
2021/12/13 08:42:42;;;;;;;47.85;28.67;;;9.20;99.90;;;;;;5113108;28;20488;-80
2021/12/13 08:45:15;;;;;;;45.95;28.17;;;9.20;99.90;;;;;;5112694;28;20127;-80
2021/12/13 08:48:01;;;;;;;47.40;28.42;;;9.20;99.90;;;;;;5106640;28;20046;-81
2021/12/13 08:50:34;;;;;;;48.03;28.52;;;9.20;99.90;;;;;;5072501;28;20489;-80
2021/12/13 08:53:24;;;;;;;50.53;29.95;;;9.20;99.90;;;;;;5064410;28;20716;-80
2021/12/13 08:56:14;;;;;;;44.92;28.67;;;9.20;99.90;;;;;;5066569;28;20048;-77
2021/12/13 08:59:10;;;;;;;45.13;28.27;;;9.30;99.90;;;;;;5089553;28;20032;-78
2021/12/13 09:01:43;;;;;;;45.30;27.60;;;9.20;99.90;;;;;;5089923;28;20040;-77
2021/12/13 09:04:10;;;;;;;43.60;26.52;;;9.30;99.90;;;;;;5100115;28;20052;-81
2021/12/13 09:06:36;;;;;;;42.35;27.25;;;9.20;99.90;;;;;;5089796;28;20052;-80
2021/12/13 09:09:03;;;;;;;42.20;26.92;;;9.30;99.90;;;;;;5088029;28;20044;-76
2021/12/13 09:11:33;;;;;;;42.58;27.55;;;9.30;99.90;;;;;;5088453;28;20182;-81
2021/12/13 09:14:07;;;;;;;43.30;26.13;;;9.30;99.90;;;;;;5089432;28;20377;-74
2021/12/13 09:17:07;;;;;;;40.08;27.05;;;9.30;99.90;;;;;;5093807;28;20044;-80
2021/12/13 09:19:57;;;;;;;42.08;27.35;;;9.30;99.90;;;;;;5110155;28;20075;-81
2021/12/13 09:22:37;;;;;;;38.25;26.23;;;9.30;99.90;;;;;;5088841;28;20060;-81
2021/12/13 09:25:25;;;;;;;41.58;26.00;;;9.30;99.90;;;;;;5109030;28;20043;-80
2021/12/13 09:27:53;;;;;;;38.28;25.83;;;9.30;99.90;;;;;;5096240;28;20048;-81
2021/12/13 09:30:42;;;;;;;39.00;25.90;;;9.30;99.90;;;;;;5088990;28;20079;-81
2021/12/13 09:33:29;;;;;;;38.35;26.30;;;9.40;99.90;;;;;;5088211;28;20056;-80
2021/12/13 09:36:21;;;;;;;41.97;25.27;;;9.30;99.90;;;;;;5088901;28;20097;-82
2021/12/13 09:38:56;;;;;;;37.80;25.92;;;9.40;99.90;;;;;;5089115;28;20044;-81
2021/12/13 09:41:30;;;;;;;36.35;24.75;;;9.40;99.90;;;;;;5088898;28;20040;-79
2021/12/13 09:44:15;;;;;;;35.78;24.58;;;9.40;99.90;;;;;;5089500;28;20059;-79
2021/12/13 09:47:14;;;;;;;35.20;23.77;;;9.40;99.90;;;;;;5094070;28;20523;-81
2021/12/13 09:49:47;;;;;;;32.92;22.67;;;9.40;99.90;;;;;;5090427;28;20520;-77
2021/12/13 09:52:25;;;;;;;32.50;23.80;;;9.40;99.90;;;;;;5088754;28;20082;-81
2021/12/13 09:55:14;;;;;;;32.80;22.85;;;9.40;99.90;;;;;;5087916;28;20397;-80
2021/12/13 09:57:55;;;;;;;34.78;23.45;;;9.50;99.90;;;;;;5088736;28;20052;-79
2021/12/13 10:00:29;;;;;;;;;;;9.50;99.90;;;;;;5089199;28;20051;-81
2021/12/13 10:03:01;;;;;;;33.53;23.52;;;9.50;99.90;;;;;;5087397;28;20392;-80
2021/12/13 10:05:33;;;;;;;31.88;22.70;;;9.50;99.90;;;;;;5089426;28;20076;-77
2021/12/13 10:08:07;;;;;;;31.80;21.88;;;9.50;99.90;;;;;;5092109;28;20470;-80
2021/12/13 10:10:46;;;;;;;30.20;20.77;;;9.50;99.90;;;;;;5089411;28;20560;-78
2021/12/13 10:13:18;;;;;;;30.02;20.80;;;9.50;99.90;;;;;;5092185;28;20047;-80
2021/12/13 10:15:49;;;;;;;27.90;20.63;;;9.60;99.90;;;;;;5091824;28;20039;-76
2021/12/13 10:18:20;;;;;;;29.55;20.42;;;9.60;99.90;;;;;;5092121;28;20044;-79
2021/12/13 10:20:54;;;;;;;30.08;21.20;;;9.60;99.90;;;;;;5097610;28;20043;-77
2021/12/13 10:23:26;;;;;;;29.92;20.65;;;9.60;99.90;;;;;;5087773;28;20109;-79
2021/12/13 10:25:54;;;;;;;27.98;19.92;;;9.60;99.90;;;;;;5091766;28;20489;-77
2021/12/13 10:28:26;;;;;;;28.70;19.73;;;9.60;99.90;;;;;;5091000;28;20115;-79
2021/12/13 10:30:59;;;;;;;29.52;19.67;;;9.60;99.90;;;;;;5095191;28;20047;-78
2021/12/13 10:33:26;;;;;;;27.58;20.08;;;9.60;99.90;;;;;;5090523;28;20082;-79
2021/12/13 10:35:55;;;;;;;29.15;19.90;;;9.60;99.90;;;;;;5091874;28;20044;-79
2021/12/13 10:38:26;;;;;;;25.33;19.38;;;9.60;99.90;;;;;;5090576;28;20087;-75
2021/12/13 10:41:08;;;;;;;30.95;20.05;;;9.60;99.90;;;;;;5087965;28;20068;-80
2021/12/13 10:44:05;;;;;;;29.17;19.63;;;9.60;99.90;;;;;;5091264;28;20114;-77
2021/12/13 10:46:35;;;;;;;25.30;19.40;;;9.60;99.90;;;;;;5086750;28;20048;-79
2021/12/13 10:49:07;;;;;;;26.30;19.42;;;9.60;99.90;;;;;;5091388;28;20104;-78
2021/12/13 10:51:38;;;;;;;27.15;19.52;;;9.60;99.90;;;;;;5090961;28;20039;-79
2021/12/13 10:54:07;;;;;;;;;;;9.70;99.90;;;;;;5090468;28;20040;-80
2021/12/13 10:56:37;;;;;;;29.17;19.58;;;9.60;99.90;;;;;;5090688;28;20365;-79
2021/12/13 10:59:04;;;;;;;;;;;9.60;99.90;;;;;;5092457;28;20128;-79
2021/12/13 11:01:34;;;;;;;26.17;19.35;;;9.70;99.90;;;;;;5090772;28;19916;-79
2021/12/13 11:04:15;;;;;;;25.33;19.00;;;9.60;99.90;;;;;;5091371;28;20057;-79
2021/12/13 11:06:42;;;;;;;26.73;19.05;;;9.70;99.90;;;;;;5091454;28;20047;-74
2021/12/13 11:09:14;;;;;;;27.45;18.73;;;9.70;99.90;;;;;;5111316;28;20043;-79
2021/12/13 11:11:55;;;;;;;28.45;18.85;;;9.70;99.90;;;;;;5092472;28;20525;-79
2021/12/13 11:14:21;;;;;;;;;;;9.70;99.90;;;;;;5091544;28;20047;-79
2021/12/13 11:16:55;;;;;;;27.50;19.17;;;9.70;99.90;;;;;;5090361;28;20396;-76
2021/12/13 11:19:25;;;;;;;25.90;18.88;;;9.70;99.90;;;;;;5091162;28;20047;-78
2021/12/13 11:22:00;;;;;;;25.42;19.15;;;9.70;99.90;;;;;;5093856;28;20118;-78
2021/12/13 11:24:27;;;;;;;26.60;18.70;;;9.70;99.90;;;;;;5090768;28;20047;-80
2021/12/13 11:26:58;;;;;;;25.23;18.73;;;9.70;99.90;;;;;;5091346;28;20040;-80
2021/12/13 11:29:24;;;;;;;23.25;18.00;;;9.70;99.90;;;;;;5089936;28;20079;-76
2021/12/13 11:31:53;;;;;;;26.13;18.38;;;9.70;99.90;;;;;;5090850;28;20182;-78
2021/12/13 11:34:51;;;;;;;24.95;18.42;;;9.70;99.90;;;;;;5090334;28;20500;-78
2021/12/13 11:37:51;;;;;;;25.55;18.90;;;9.70;99.90;;;;;;5078638;28;20130;-75
2021/12/13 11:40:31;;;;;;;23.70;18.13;;;9.70;99.90;;;;;;5110640;28;20122;-79
2021/12/13 11:43:24;;;;;;;27.00;19.00;;;9.70;99.90;;;;;;5111000;28;20055;-75
2021/12/13 11:46:02;;;;;;;24.33;18.10;;;9.70;99.90;;;;;;5110453;28;20055;-75
2021/12/13 11:48:40;;;;;;;23.80;17.45;;;9.70;99.90;;;;;;5110846;28;20047;-79
2021/12/13 11:51:54;;;;;;;27.38;18.17;;;9.70;99.90;;;;;;5110400;28;20044;-79
2021/12/13 11:54:50;;;;;;;27.20;19.02;;;9.70;99.90;;;;;;5110085;28;20126;-75
2021/12/13 11:57:53;;;;;;;23.50;17.80;;;9.70;99.90;;;;;;5110513;27;20056;-74
2021/12/13 12:00:48;;;;;;;24.58;18.42;;;9.70;99.90;;;;;;5110118;28;20395;-79
2021/12/13 12:03:51;;;;;;;25.55;18.48;;;9.80;99.90;;;;;;5105041;28;20055;-76
2021/12/13 12:06:51;;;;;;;23.63;17.35;;;9.80;99.90;;;;;;5109874;28;20083;-73
2021/12/13 12:09:17;;;;;;;24.25;17.30;;;9.80;99.90;;;;;;5069367;28;20056;-79
2021/12/13 12:12:02;;;;;;;21.80;16.67;;;9.80;99.90;;;;;;5072885;28;20531;-79
2021/12/13 12:14:29;;;;;;;22.75;17.10;;;9.80;99.90;;;;;;5072310;28;20048;-79
2021/12/13 12:16:58;;;;;;;22.33;16.70;;;9.80;99.90;;;;;;5072866;28;20084;-79
2021/12/13 12:19:29;;;;;;;21.00;16.35;;;9.80;99.90;;;;;;5072348;28;20044;-78
2021/12/13 12:22:15;;;;;;;22.15;17.50;;;9.80;99.90;;;;;;5073763;28;20055;-78
2021/12/13 12:24:50;;;;;;;23.95;17.25;;;9.80;99.90;;;;;;5087035;28;20492;-78
2021/12/13 12:27:18;;;;;;;22.08;15.98;;;9.80;99.90;;;;;;5113290;28;20392;-79
2021/12/13 12:29:51;;;;;;;21.73;16.77;;;9.80;99.90;;;;;;5112635;28;20083;-79
2021/12/13 12:32:23;;;;;;;21.55;16.50;;;9.80;99.90;;;;;;5113295;28;20098;-76
2021/12/13 12:34:55;;;;;;;21.27;15.98;;;9.80;99.90;;;;;;5107257;28;20466;-79
2021/12/13 12:37:54;;;;;;;22.73;16.33;;;9.80;99.90;;;;;;5092541;28;20504;-74
2021/12/13 12:40:29;;;;;;;22.05;16.00;;;9.80;99.90;;;;;;5092102;28;20485;-74
2021/12/13 12:43:07;;;;;;;22.00;16.67;;;9.80;99.90;;;;;;5092104;28;20051;-79
2021/12/13 12:45:39;;;;;;;22.55;16.08;;;9.80;99.90;;;;;;5092013;28;20043;-78
2021/12/13 12:48:27;;;;;;;23.17;16.38;;;9.80;99.90;;;;;;5089571;28;20489;-79
2021/12/13 12:51:03;;;;;;;21.33;16.13;;;9.80;99.90;;;;;;5091050;28;20468;-78
2021/12/13 12:53:36;;;;;;;21.85;16.33;;;9.80;99.90;;;;;;5091586;28;20051;-79
2021/12/13 12:56:40;;;;;;;23.17;16.85;;;9.80;99.90;;;;;;5092622;28;20044;-79
2021/12/13 12:59:17;;;;;;;20.63;15.20;;;9.80;99.90;;;;;;5069259;28;20095;-79
2021/12/13 13:01:49;;;;;;;23.52;15.95;;;9.80;99.90;;;;;;5092095;28;20137;-78
2021/12/13 13:04:27;;;;;;;21.48;15.95;;;9.80;99.90;;;;;;5092306;28;20472;-78
2021/12/13 13:07:00;;;;;;;20.55;15.68;;;9.90;99.90;;;;;;5091737;28;20193;-79
2021/12/13 13:09:50;;;;;;;20.58;14.98;;;9.80;99.90;;;;;;5092024;28;20130;-78
2021/12/13 13:12:25;;;;;;;20.33;14.68;;;9.90;99.90;;;;;;5092540;28;20056;-79
2021/12/13 13:15:14;;;;;;;19.33;14.68;;;9.80;99.90;;;;;;5091408;28;20517;-78
2021/12/13 13:17:44;;;;;;;21.83;15.15;;;9.90;99.90;;;;;;5091130;28;20098;-78
2021/12/13 13:20:24;;;;;;;19.75;15.15;;;9.80;99.90;;;;;;5092694;28;20048;-78
2021/12/13 13:22:57;;;;;;;18.75;14.43;;;9.90;99.90;;;;;;5090958;28;20055;-78
2021/12/13 13:25:30;;;;;;;20.55;15.32;;;9.90;99.90;;;;;;5092113;28;20040;-78
2021/12/13 13:27:58;;;;;;;21.42;15.25;;;9.90;99.90;;;;;;5092271;28;20052;-78